sensor_id;sensor_type;location;lat;lon;timestamp;P1;durP1;ratioP1;P2;durP2;ratioP2
3074;SDS011;1548;51.716;8.748;2022-09-09T00:04:32;624.80;;;523.53;;
3074;SDS011;1548;51.716;8.748;2022-09-09T00:15:20;691.87;;;526.33;;
3074;SDS011;1548;51.716;8.748;2022-09-09T00:17:52;623.57;;;443.53;;
3074;SDS011;1548;51.716;8.748;2022-09-09T00:20:29;670.67;;;423.43;;
3074;SDS011;1548;51.716;8.748;2022-09-09T00:23:02;688.13;;;587.30;;
3074;SDS011;1548;51.716;8.748;2022-09-09T00:25:52;675.53;;;513.43;;
3074;SDS011;1548;51.716;8.748;2022-09-09T00:28:20;684.33;;;463.60;;
3074;SDS011;1548;51.716;8.748;2022-09-09T00:30:49;677.50;;;529.50;;
3074;SDS011;1548;51.716;8.748;2022-09-09T00:33:16;632.23;;;459.90;;
3074;SDS011;1548;51.716;8.748;2022-09-09T00:35:49;725.80;;;594.27;;
3074;SDS011;1548;51.716;8.748;2022-09-09T00:38:40;705.07;;;512.13;;
3074;SDS011;1548;51.716;8.748;2022-09-09T00:43:39;684.03;;;462.50;;
3074;SDS011;1548;51.716;8.748;2022-09-09T00:49:02;633.47;;;575.57;;
3074;SDS011;1548;51.716;8.748;2022-09-09T00:51:48;657.53;;;626.17;;
3074;SDS011;1548;51.716;8.748;2022-09-09T00:57:23;654.97;;;477.10;;
3074;SDS011;1548;51.716;8.748;2022-09-09T01:03:10;701.73;;;542.27;;
3074;SDS011;1548;51.716;8.748;2022-09-09T01:16:48;718.80;;;565.60;;
3074;SDS011;1548;51.716;8.748;2022-09-09T01:19:18;695.27;;;483.00;;
3074;SDS011;1548;51.716;8.748;2022-09-09T01:21:56;679.00;;;432.07;;
3074;SDS011;1548;51.716;8.748;2022-09-09T01:24:35;581.50;;;475.60;;
3074;SDS011;1548;51.716;8.748;2022-09-09T01:27:05;472.63;;;437.30;;
3074;SDS011;1548;51.716;8.748;2022-09-09T01:29:32;545.93;;;519.87;;
3074;SDS011;1548;51.716;8.748;2022-09-09T01:31:59;410.03;;;390.43;;
3074;SDS011;1548;51.716;8.748;2022-09-09T01:34:28;333.70;;;317.77;;
3074;SDS011;1548;51.716;8.748;2022-09-09T01:39:35;258.33;;;245.97;;
3074;SDS011;1548;51.716;8.748;2022-09-09T01:42:02;221.40;;;210.80;;
3074;SDS011;1548;51.716;8.748;2022-09-09T01:44:31;539.13;;;419.77;;
3074;SDS011;1548;51.716;8.748;2022-09-09T01:46:58;715.53;;;573.83;;
3074;SDS011;1548;51.716;8.748;2022-09-09T01:49:23;654.67;;;355.60;;
3074;SDS011;1548;51.716;8.748;2022-09-09T01:51:50;687.77;;;482.73;;
3074;SDS011;1548;51.716;8.748;2022-09-09T01:54:19;655.73;;;353.07;;
3074;SDS011;1548;51.716;8.748;2022-09-09T02:02:08;666.20;;;403.63;;
3074;SDS011;1548;51.716;8.748;2022-09-09T02:04:49;687.27;;;585.93;;
3074;SDS011;1548;51.716;8.748;2022-09-09T02:09:50;714.50;;;547.27;;
3074;SDS011;1548;51.716;8.748;2022-09-09T02:12:22;710.23;;;545.47;;
3074;SDS011;1548;51.716;8.748;2022-09-09T02:14:51;687.60;;;483.23;;
3074;SDS011;1548;51.716;8.748;2022-09-09T02:17:28;664.67;;;399.83;;
3074;SDS011;1548;51.716;8.748;2022-09-09T02:20:19;700.17;;;511.53;;
3074;SDS011;1548;51.716;8.748;2022-09-09T02:22:44;679.33;;;456.70;;
3074;SDS011;1548;51.716;8.748;2022-09-09T02:25:14;659.43;;;359.37;;
3074;SDS011;1548;51.716;8.748;2022-09-09T02:27:43;693.77;;;508.37;;
3074;SDS011;1548;51.716;8.748;2022-09-09T02:30:11;665.30;;;404.23;;
3074;SDS011;1548;51.716;8.748;2022-09-09T02:32:37;705.63;;;540.93;;
3074;SDS011;1548;51.716;8.748;2022-09-09T02:35:08;677.00;;;434.60;;
3074;SDS011;1548;51.716;8.748;2022-09-09T02:37:37;678.63;;;446.00;;
3074;SDS011;1548;51.716;8.748;2022-09-09T02:40:05;674.97;;;449.60;;
3074;SDS011;1548;51.716;8.748;2022-09-09T02:42:38;705.67;;;523.47;;
3074;SDS011;1548;51.716;8.748;2022-09-09T02:45:12;652.70;;;358.83;;
3074;SDS011;1548;51.716;8.748;2022-09-09T02:50:33;657.57;;;375.83;;
3074;SDS011;1548;51.716;8.748;2022-09-09T02:53:16;670.57;;;407.47;;
3074;SDS011;1548;51.716;8.748;2022-09-09T02:55:59;662.80;;;379.03;;
3074;SDS011;1548;51.716;8.748;2022-09-09T02:58:29;666.67;;;423.23;;
3074;SDS011;1548;51.716;8.748;2022-09-09T03:00:55;530.90;;;485.70;;
3074;SDS011;1548;51.716;8.748;2022-09-09T03:03:22;659.03;;;367.47;;
3074;SDS011;1548;51.716;8.748;2022-09-09T03:05:48;689.70;;;469.27;;
3074;SDS011;1548;51.716;8.748;2022-09-09T03:08:14;711.00;;;522.80;;
3074;SDS011;1548;51.716;8.748;2022-09-09T03:10:40;690.30;;;473.37;;
3074;SDS011;1548;51.716;8.748;2022-09-09T03:13:05;709.97;;;546.20;;
3074;SDS011;1548;51.716;8.748;2022-09-09T03:15:32;699.23;;;510.53;;
3074;SDS011;1548;51.716;8.748;2022-09-09T03:17:58;680.67;;;434.07;;
3074;SDS011;1548;51.716;8.748;2022-09-09T03:20:24;687.03;;;454.13;;
3074;SDS011;1548;51.716;8.748;2022-09-09T03:22:51;680.27;;;444.90;;
3074;SDS011;1548;51.716;8.748;2022-09-09T03:25:18;648.67;;;328.13;;
3074;SDS011;1548;51.716;8.748;2022-09-09T03:27:43;648.63;;;326.07;;
3074;SDS011;1548;51.716;8.748;2022-09-09T03:30:09;669.17;;;399.17;;
3074;SDS011;1548;51.716;8.748;2022-09-09T03:32:35;702.60;;;512.93;;
3074;SDS011;1548;51.716;8.748;2022-09-09T03:35:01;657.47;;;350.67;;
3074;SDS011;1548;51.716;8.748;2022-09-09T03:37:27;657.27;;;356.40;;
3074;SDS011;1548;51.716;8.748;2022-09-09T03:39:52;673.83;;;452.93;;
3074;SDS011;1548;51.716;8.748;2022-09-09T03:42:19;656.67;;;355.03;;
3074;SDS011;1548;51.716;8.748;2022-09-09T03:44:45;692.93;;;485.87;;
3074;SDS011;1548;51.716;8.748;2022-09-09T03:47:21;703.77;;;524.80;;
3074;SDS011;1548;51.716;8.748;2022-09-09T03:49:47;689.13;;;468.63;;
3074;SDS011;1548;51.716;8.748;2022-09-09T03:52:13;699.43;;;504.23;;
3074;SDS011;1548;51.716;8.748;2022-09-09T03:54:39;676.87;;;388.27;;
3074;SDS011;1548;51.716;8.748;2022-09-09T03:57:06;675.13;;;419.07;;
3074;SDS011;1548;51.716;8.748;2022-09-09T03:59:32;656.07;;;361.13;;
3074;SDS011;1548;51.716;8.748;2022-09-09T04:01:57;679.83;;;435.07;;
3074;SDS011;1548;51.716;8.748;2022-09-09T04:04:24;673.97;;;402.43;;
3074;SDS011;1548;51.716;8.748;2022-09-09T04:06:50;647.17;;;393.70;;
3074;SDS011;1548;51.716;8.748;2022-09-09T04:09:16;711.23;;;585.17;;
3074;SDS011;1548;51.716;8.748;2022-09-09T04:11:42;681.67;;;452.90;;
3074;SDS011;1548;51.716;8.748;2022-09-09T04:14:07;672.03;;;418.67;;
3074;SDS011;1548;51.716;8.748;2022-09-09T04:16:34;660.53;;;372.13;;
3074;SDS011;1548;51.716;8.748;2022-09-09T04:19:01;670.27;;;385.57;;
3074;SDS011;1548;51.716;8.748;2022-09-09T04:21:29;696.20;;;484.57;;
3074;SDS011;1548;51.716;8.748;2022-09-09T04:23:55;678.97;;;402.97;;
3074;SDS011;1548;51.716;8.748;2022-09-09T04:26:21;679.37;;;421.23;;
3074;SDS011;1548;51.716;8.748;2022-09-09T04:28:47;683.67;;;435.67;;
3074;SDS011;1548;51.716;8.748;2022-09-09T04:31:14;709.47;;;528.83;;
3074;SDS011;1548;51.716;8.748;2022-09-09T04:33:45;681.43;;;417.03;;
3074;SDS011;1548;51.716;8.748;2022-09-09T04:36:11;674.10;;;402.73;;
3074;SDS011;1548;51.716;8.748;2022-09-09T04:38:38;689.87;;;455.23;;
3074;SDS011;1548;51.716;8.748;2022-09-09T04:41:04;667.03;;;391.43;;
3074;SDS011;1548;51.716;8.748;2022-09-09T04:43:30;671.53;;;376.23;;
3074;SDS011;1548;51.716;8.748;2022-09-09T04:45:56;665.10;;;341.17;;
3074;SDS011;1548;51.716;8.748;2022-09-09T04:48:24;658.93;;;347.60;;
3074;SDS011;1548;51.716;8.748;2022-09-09T04:50:53;686.37;;;411.50;;
3074;SDS011;1548;51.716;8.748;2022-09-09T04:53:20;667.77;;;365.03;;
3074;SDS011;1548;51.716;8.748;2022-09-09T04:55:47;675.33;;;390.83;;
3074;SDS011;1548;51.716;8.748;2022-09-09T04:58:13;676.40;;;404.90;;
3074;SDS011;1548;51.716;8.748;2022-09-09T05:00:39;634.40;;;416.43;;
3074;SDS011;1548;51.716;8.748;2022-09-09T05:03:05;669.37;;;384.63;;
3074;SDS011;1548;51.716;8.748;2022-09-09T05:05:32;611.17;;;363.70;;
3074;SDS011;1548;51.716;8.748;2022-09-09T05:08:04;696.73;;;465.33;;
3074;SDS011;1548;51.716;8.748;2022-09-09T05:10:31;683.97;;;434.23;;
3074;SDS011;1548;51.716;8.748;2022-09-09T05:12:58;678.17;;;383.30;;
3074;SDS011;1548;51.716;8.748;2022-09-09T05:15:24;664.33;;;352.33;;
3074;SDS011;1548;51.716;8.748;2022-09-09T05:17:49;652.23;;;338.77;;
3074;SDS011;1548;51.716;8.748;2022-09-09T05:20:17;666.77;;;415.33;;
3074;SDS011;1548;51.716;8.748;2022-09-09T05:22:43;659.00;;;420.57;;
3074;SDS011;1548;51.716;8.748;2022-09-09T05:25:09;661.80;;;357.57;;
3074;SDS011;1548;51.716;8.748;2022-09-09T05:27:34;693.47;;;473.83;;
3074;SDS011;1548;51.716;8.748;2022-09-09T05:30:00;695.60;;;474.50;;
3074;SDS011;1548;51.716;8.748;2022-09-09T05:32:25;750.97;;;465.43;;
3074;SDS011;1548;51.716;8.748;2022-09-09T05:34:51;702.20;;;385.23;;
3074;SDS011;1548;51.716;8.748;2022-09-09T05:37:17;699.70;;;401.63;;
3074;SDS011;1548;51.716;8.748;2022-09-09T05:39:43;682.77;;;384.73;;
3074;SDS011;1548;51.716;8.748;2022-09-09T05:42:09;672.83;;;381.70;;
3074;SDS011;1548;51.716;8.748;2022-09-09T05:44:35;684.83;;;388.57;;
3074;SDS011;1548;51.716;8.748;2022-09-09T05:47:00;687.83;;;437.43;;
3074;SDS011;1548;51.716;8.748;2022-09-09T05:49:26;732.97;;;346.70;;
3074;SDS011;1548;51.716;8.748;2022-09-09T05:51:51;643.77;;;413.70;;
3074;SDS011;1548;51.716;8.748;2022-09-09T05:54:17;664.93;;;367.70;;
3074;SDS011;1548;51.716;8.748;2022-09-09T05:56:43;686.33;;;423.53;;
3074;SDS011;1548;51.716;8.748;2022-09-09T05:59:09;679.93;;;398.17;;
3074;SDS011;1548;51.716;8.748;2022-09-09T06:01:35;674.77;;;419.87;;
3074;SDS011;1548;51.716;8.748;2022-09-09T06:04:05;700.47;;;482.60;;
3074;SDS011;1548;51.716;8.748;2022-09-09T06:06:32;714.43;;;545.13;;
3074;SDS011;1548;51.716;8.748;2022-09-09T06:09:02;725.83;;;584.53;;
3074;SDS011;1548;51.716;8.748;2022-09-09T06:11:32;727.60;;;551.70;;
3074;SDS011;1548;51.716;8.748;2022-09-09T06:14:00;727.80;;;587.73;;
3074;SDS011;1548;51.716;8.748;2022-09-09T06:16:27;721.37;;;563.27;;
3074;SDS011;1548;51.716;8.748;2022-09-09T06:18:55;712.07;;;531.17;;
3074;SDS011;1548;51.716;8.748;2022-09-09T06:21:22;777.67;;;519.63;;
3074;SDS011;1548;51.716;8.748;2022-09-09T06:23:49;708.30;;;516.43;;
3074;SDS011;1548;51.716;8.748;2022-09-09T06:26:22;716.90;;;511.17;;
3074;SDS011;1548;51.716;8.748;2022-09-09T06:28:50;726.70;;;565.90;;
3074;SDS011;1548;51.716;8.748;2022-09-09T06:31:18;745.83;;;611.47;;
3074;SDS011;1548;51.716;8.748;2022-09-09T06:33:46;728.20;;;569.07;;
3074;SDS011;1548;51.716;8.748;2022-09-09T06:36:15;740.97;;;611.00;;
3074;SDS011;1548;51.716;8.748;2022-09-09T06:38:43;729.67;;;553.23;;
3074;SDS011;1548;51.716;8.748;2022-09-09T06:41:09;671.10;;;523.80;;
3074;SDS011;1548;51.716;8.748;2022-09-09T06:43:37;723.23;;;595.53;;
3074;SDS011;1548;51.716;8.748;2022-09-09T06:46:04;733.90;;;572.27;;
3074;SDS011;1548;51.716;8.748;2022-09-09T06:48:41;712.93;;;553.67;;
3074;SDS011;1548;51.716;8.748;2022-09-09T06:53:38;735.00;;;586.80;;
3074;SDS011;1548;51.716;8.748;2022-09-09T06:58:36;716.23;;;545.13;;
3074;SDS011;1548;51.716;8.748;2022-09-09T07:01:08;732.73;;;539.93;;
3074;SDS011;1548;51.716;8.748;2022-09-09T07:03:33;745.63;;;631.57;;
3074;SDS011;1548;51.716;8.748;2022-09-09T07:06:00;749.53;;;654.47;;
3074;SDS011;1548;51.716;8.748;2022-09-09T07:08:26;746.57;;;615.33;;
3074;SDS011;1548;51.716;8.748;2022-09-09T07:10:52;757.23;;;674.33;;
3074;SDS011;1548;51.716;8.748;2022-09-09T07:13:19;739.03;;;569.27;;
3074;SDS011;1548;51.716;8.748;2022-09-09T07:15:52;699.63;;;544.27;;
3074;SDS011;1548;51.716;8.748;2022-09-09T07:18:18;718.47;;;532.87;;
3074;SDS011;1548;51.716;8.748;2022-09-09T07:20:52;750.47;;;598.17;;
3074;SDS011;1548;51.716;8.748;2022-09-09T07:23:19;707.90;;;471.40;;
3074;SDS011;1548;51.716;8.748;2022-09-09T07:25:45;752.80;;;568.53;;
3074;SDS011;1548;51.716;8.748;2022-09-09T07:28:12;753.50;;;630.17;;
3074;SDS011;1548;51.716;8.748;2022-09-09T07:30:39;718.63;;;526.73;;
3074;SDS011;1548;51.716;8.748;2022-09-09T07:33:05;719.50;;;553.40;;
3074;SDS011;1548;51.716;8.748;2022-09-09T07:35:31;713.30;;;574.13;;
3074;SDS011;1548;51.716;8.748;2022-09-09T07:37:57;735.13;;;610.33;;
3074;SDS011;1548;51.716;8.748;2022-09-09T07:40:25;716.27;;;547.30;;
3074;SDS011;1548;51.716;8.748;2022-09-09T07:42:51;720.23;;;551.30;;
3074;SDS011;1548;51.716;8.748;2022-09-09T07:45:16;742.83;;;629.93;;
3074;SDS011;1548;51.716;8.748;2022-09-09T07:47:42;729.20;;;575.77;;
3074;SDS011;1548;51.716;8.748;2022-09-09T07:50:09;732.30;;;571.87;;
3074;SDS011;1548;51.716;8.748;2022-09-09T07:52:34;737.70;;;597.13;;
3074;SDS011;1548;51.716;8.748;2022-09-09T07:55:00;741.63;;;614.13;;
3074;SDS011;1548;51.716;8.748;2022-09-09T07:57:27;756.17;;;665.37;;
3074;SDS011;1548;51.716;8.748;2022-09-09T07:59:55;757.87;;;639.10;;
3074;SDS011;1548;51.716;8.748;2022-09-09T08:02:21;765.33;;;667.03;;
3074;SDS011;1548;51.716;8.748;2022-09-09T08:04:48;786.93;;;699.20;;
3074;SDS011;1548;51.716;8.748;2022-09-09T08:07:14;739.37;;;603.50;;
3074;SDS011;1548;51.716;8.748;2022-09-09T08:09:41;760.00;;;653.00;;
3074;SDS011;1548;51.716;8.748;2022-09-09T08:12:06;726.63;;;567.10;;
3074;SDS011;1548;51.716;8.748;2022-09-09T08:14:33;732.17;;;587.93;;
3074;SDS011;1548;51.716;8.748;2022-09-09T08:16:58;714.53;;;550.23;;
3074;SDS011;1548;51.716;8.748;2022-09-09T08:19:24;762.80;;;621.67;;
3074;SDS011;1548;51.716;8.748;2022-09-09T08:21:50;739.73;;;571.80;;
3074;SDS011;1548;51.716;8.748;2022-09-09T08:24:16;719.47;;;556.13;;
3074;SDS011;1548;51.716;8.748;2022-09-09T08:26:50;750.90;;;544.57;;
3074;SDS011;1548;51.716;8.748;2022-09-09T08:29:16;695.63;;;454.57;;
3074;SDS011;1548;51.716;8.748;2022-09-09T08:31:47;661.87;;;402.73;;
3074;SDS011;1548;51.716;8.748;2022-09-09T08:34:19;708.73;;;535.23;;
3074;SDS011;1548;51.716;8.748;2022-09-09T08:36:46;743.47;;;592.27;;
3074;SDS011;1548;51.716;8.748;2022-09-09T08:39:13;724.13;;;563.40;;
3074;SDS011;1548;51.716;8.748;2022-09-09T08:52:42;512.90;;;115.87;;
3074;SDS011;1548;51.716;8.748;2022-09-09T08:58:01;759.03;;;656.07;;
3074;SDS011;1548;51.716;8.748;2022-09-09T09:03:47;744.83;;;565.80;;
3074;SDS011;1548;51.716;8.748;2022-09-09T09:09:02;690.57;;;548.17;;
3074;SDS011;1548;51.716;8.748;2022-09-09T09:11:43;749.47;;;629.83;;
3074;SDS011;1548;51.716;8.748;2022-09-09T09:14:20;735.90;;;593.07;;
3074;SDS011;1548;51.716;8.748;2022-09-09T09:16:58;739.20;;;615.87;;
3074;SDS011;1548;51.716;8.748;2022-09-09T09:19:26;731.93;;;622.93;;
3074;SDS011;1548;51.716;8.748;2022-09-09T09:22:01;755.80;;;647.97;;
3074;SDS011;1548;51.716;8.748;2022-09-09T09:24:53;697.53;;;578.27;;
3074;SDS011;1548;51.716;8.748;2022-09-09T09:27:43;714.43;;;632.87;;
3074;SDS011;1548;51.716;8.748;2022-09-09T09:30:21;728.07;;;587.53;;
3074;SDS011;1548;51.716;8.748;2022-09-09T09:32:59;716.73;;;618.90;;
3074;SDS011;1548;51.716;8.748;2022-09-09T09:35:30;754.50;;;660.87;;
3074;SDS011;1548;51.716;8.748;2022-09-09T09:37:56;757.40;;;647.47;;
3074;SDS011;1548;51.716;8.748;2022-09-09T09:40:22;733.43;;;647.43;;
3074;SDS011;1548;51.716;8.748;2022-09-09T09:42:59;775.63;;;706.37;;
3074;SDS011;1548;51.716;8.748;2022-09-09T09:45:33;777.33;;;715.47;;
3074;SDS011;1548;51.716;8.748;2022-09-09T09:48:08;752.40;;;676.77;;
3074;SDS011;1548;51.716;8.748;2022-09-09T09:50:39;765.77;;;672.70;;
3074;SDS011;1548;51.716;8.748;2022-09-09T09:55:52;794.47;;;752.13;;
3074;SDS011;1548;51.716;8.748;2022-09-09T09:58:24;768.87;;;706.23;;
3074;SDS011;1548;51.716;8.748;2022-09-09T10:00:53;804.17;;;765.13;;
3074;SDS011;1548;51.716;8.748;2022-09-09T10:03:21;698.37;;;514.60;;
3074;SDS011;1548;51.716;8.748;2022-09-09T10:05:52;717.53;;;633.03;;
3074;SDS011;1548;51.716;8.748;2022-09-09T10:08:18;627.17;;;378.20;;
3074;SDS011;1548;51.716;8.748;2022-09-09T10:13:45;491.20;;;135.83;;
3074;SDS011;1548;51.716;8.748;2022-09-09T10:19:21;521.70;;;101.60;;
3074;SDS011;1548;51.716;8.748;2022-09-09T10:22:02;516.53;;;105.53;;
3074;SDS011;1548;51.716;8.748;2022-09-09T10:35:34;613.10;;;363.77;;
3074;SDS011;1548;51.716;8.748;2022-09-09T10:47:11;757.23;;;694.10;;
3074;SDS011;1548;51.716;8.748;2022-09-09T10:49:59;663.83;;;550.17;;
3074;SDS011;1548;51.716;8.748;2022-09-09T10:52:57;778.00;;;720.40;;
3074;SDS011;1548;51.716;8.748;2022-09-09T10:55:35;765.27;;;704.57;;
3074;SDS011;1548;51.716;8.748;2022-09-09T10:59:14;520.40;;;112.40;;
3074;SDS011;1548;51.716;8.748;2022-09-09T11:04:17;518.93;;;116.17;;
3074;SDS011;1548;51.716;8.748;2022-09-09T11:06:49;509.10;;;91.17;;
3074;SDS011;1548;51.716;8.748;2022-09-09T11:09:21;523.63;;;105.83;;
3074;SDS011;1548;51.716;8.748;2022-09-09T11:17:05;506.67;;;90.60;;
3074;SDS011;1548;51.716;8.748;2022-09-09T11:19:39;525.17;;;108.47;;
3074;SDS011;1548;51.716;8.748;2022-09-09T11:22:08;524.33;;;100.90;;
3074;SDS011;1548;51.716;8.748;2022-09-09T11:24:45;518.97;;;109.27;;
3074;SDS011;1548;51.716;8.748;2022-09-09T11:27:21;507.97;;;97.20;;
3074;SDS011;1548;51.716;8.748;2022-09-09T11:30:36;519.93;;;125.63;;
3074;SDS011;1548;51.716;8.748;2022-09-09T11:39:43;516.67;;;116.70;;
3074;SDS011;1548;51.716;8.748;2022-09-09T11:44:51;529.40;;;118.80;;
3074;SDS011;1548;51.716;8.748;2022-09-09T11:47:26;519.93;;;125.80;;
3074;SDS011;1548;51.716;8.748;2022-09-09T11:52:41;519.47;;;137.60;;
3074;SDS011;1548;51.716;8.748;2022-09-09T11:57:58;519.87;;;128.83;;
3074;SDS011;1548;51.716;8.748;2022-09-09T12:00:38;506.03;;;168.23;;
3074;SDS011;1548;51.716;8.748;2022-09-09T12:03:30;514.77;;;157.53;;
3074;SDS011;1548;51.716;8.748;2022-09-09T12:08:43;495.40;;;181.97;;
3074;SDS011;1548;51.716;8.748;2022-09-09T12:11:11;488.27;;;165.57;;
3074;SDS011;1548;51.716;8.748;2022-09-09T12:13:55;495.63;;;156.57;;
3074;SDS011;1548;51.716;8.748;2022-09-09T12:16:28;481.33;;;175.60;;
3074;SDS011;1548;51.716;8.748;2022-09-09T12:19:03;504.50;;;170.27;;
3074;SDS011;1548;51.716;8.748;2022-09-09T12:24:13;510.57;;;150.20;;
3074;SDS011;1548;51.716;8.748;2022-09-09T12:29:27;502.87;;;153.27;;
3074;SDS011;1548;51.716;8.748;2022-09-09T12:32:02;485.97;;;168.93;;
3074;SDS011;1548;51.716;8.748;2022-09-09T12:34:39;483.60;;;162.07;;
3074;SDS011;1548;51.716;8.748;2022-09-09T12:39:45;502.60;;;153.23;;
3074;SDS011;1548;51.716;8.748;2022-09-09T12:42:16;488.90;;;169.67;;
3074;SDS011;1548;51.716;8.748;2022-09-09T12:44:52;482.23;;;166.67;;
3074;SDS011;1548;51.716;8.748;2022-09-09T12:47:20;497.57;;;164.67;;
3074;SDS011;1548;51.716;8.748;2022-09-09T12:49:50;498.23;;;162.83;;
3074;SDS011;1548;51.716;8.748;2022-09-09T12:52:27;496.77;;;166.10;;
3074;SDS011;1548;51.716;8.748;2022-09-09T12:54:55;501.80;;;160.73;;
3074;SDS011;1548;51.716;8.748;2022-09-09T12:57:23;514.20;;;136.77;;
3074;SDS011;1548;51.716;8.748;2022-09-09T12:59:51;516.80;;;161.80;;
3074;SDS011;1548;51.716;8.748;2022-09-09T13:02:19;505.13;;;158.93;;
3074;SDS011;1548;51.716;8.748;2022-09-09T13:04:50;493.57;;;168.77;;
3074;SDS011;1548;51.716;8.748;2022-09-09T13:07:17;495.73;;;165.93;;
3074;SDS011;1548;51.716;8.748;2022-09-09T13:09:44;502.90;;;163.53;;
3074;SDS011;1548;51.716;8.748;2022-09-09T13:12:13;514.33;;;155.23;;
3074;SDS011;1548;51.716;8.748;2022-09-09T13:14:51;502.77;;;169.87;;
3074;SDS011;1548;51.716;8.748;2022-09-09T13:17:22;491.23;;;171.57;;
3074;SDS011;1548;51.716;8.748;2022-09-09T13:19:50;495.43;;;165.77;;
3074;SDS011;1548;51.716;8.748;2022-09-09T13:22:29;524.73;;;129.97;;
3074;SDS011;1548;51.716;8.748;2022-09-09T13:24:58;510.17;;;157.27;;
3074;SDS011;1548;51.716;8.748;2022-09-09T13:27:51;520.47;;;134.33;;
3074;SDS011;1548;51.716;8.748;2022-09-09T13:30:25;507.10;;;153.03;;
3074;SDS011;1548;51.716;8.748;2022-09-09T13:33:01;523.97;;;118.77;;
3074;SDS011;1548;51.716;8.748;2022-09-09T13:35:29;520.33;;;116.97;;
3074;SDS011;1548;51.716;8.748;2022-09-09T13:37:55;496.57;;;136.60;;
3074;SDS011;1548;51.716;8.748;2022-09-09T13:40:23;498.67;;;201.20;;
3074;SDS011;1548;51.716;8.748;2022-09-09T13:42:53;514.20;;;129.87;;
3074;SDS011;1548;51.716;8.748;2022-09-09T13:45:22;488.60;;;141.13;;
3074;SDS011;1548;51.716;8.748;2022-09-09T13:47:51;557.23;;;363.73;;
3074;SDS011;1548;51.716;8.748;2022-09-09T13:50:24;500.90;;;324.57;;
3074;SDS011;1548;51.716;8.748;2022-09-09T13:52:56;716.27;;;664.40;;
3074;SDS011;1548;51.716;8.748;2022-09-09T13:55:29;600.53;;;478.23;;
3074;SDS011;1548;51.716;8.748;2022-09-09T13:57:55;433.97;;;293.30;;
3074;SDS011;1548;51.716;8.748;2022-09-09T14:00:23;600.83;;;504.10;;
3074;SDS011;1548;51.716;8.748;2022-09-09T14:02:49;459.57;;;98.00;;
3074;SDS011;1548;51.716;8.748;2022-09-09T14:05:16;615.70;;;351.30;;
3074;SDS011;1548;51.716;8.748;2022-09-09T14:07:43;740.07;;;670.80;;
3074;SDS011;1548;51.716;8.748;2022-09-09T14:10:09;509.53;;;134.70;;
3074;SDS011;1548;51.716;8.748;2022-09-09T14:12:36;506.93;;;100.50;;
3074;SDS011;1548;51.716;8.748;2022-09-09T14:15:03;500.23;;;95.03;;
3074;SDS011;1548;51.716;8.748;2022-09-09T14:17:29;516.67;;;121.13;;
3074;SDS011;1548;51.716;8.748;2022-09-09T14:19:56;512.23;;;113.83;;
3074;SDS011;1548;51.716;8.748;2022-09-09T14:22:22;505.57;;;101.77;;
3074;SDS011;1548;51.716;8.748;2022-09-09T14:24:48;511.80;;;93.97;;
3074;SDS011;1548;51.716;8.748;2022-09-09T14:27:15;506.10;;;102.83;;
3074;SDS011;1548;51.716;8.748;2022-09-09T14:29:41;507.07;;;99.20;;
3074;SDS011;1548;51.716;8.748;2022-09-09T14:32:09;517.63;;;118.87;;
3074;SDS011;1548;51.716;8.748;2022-09-09T14:34:34;511.57;;;101.43;;
3074;SDS011;1548;51.716;8.748;2022-09-09T14:37:00;517.23;;;115.83;;
3074;SDS011;1548;51.716;8.748;2022-09-09T14:39:26;510.17;;;112.07;;
3074;SDS011;1548;51.716;8.748;2022-09-09T14:41:52;513.37;;;106.90;;
3074;SDS011;1548;51.716;8.748;2022-09-09T14:44:17;527.67;;;147.87;;
3074;SDS011;1548;51.716;8.748;2022-09-09T14:46:43;519.93;;;135.30;;
3074;SDS011;1548;51.716;8.748;2022-09-09T14:49:09;515.37;;;151.77;;
3074;SDS011;1548;51.716;8.748;2022-09-09T14:51:38;517.87;;;146.83;;
3074;SDS011;1548;51.716;8.748;2022-09-09T14:54:04;519.20;;;126.90;;
3074;SDS011;1548;51.716;8.748;2022-09-09T14:56:30;519.47;;;110.60;;
3074;SDS011;1548;51.716;8.748;2022-09-09T14:58:59;511.00;;;109.80;;
3074;SDS011;1548;51.716;8.748;2022-09-09T15:01:26;585.07;;;314.80;;
3074;SDS011;1548;51.716;8.748;2022-09-09T15:03:53;519.93;;;222.53;;
3074;SDS011;1548;51.716;8.748;2022-09-09T15:06:21;512.27;;;133.77;;
3074;SDS011;1548;51.716;8.748;2022-09-09T15:08:49;513.70;;;101.20;;
3074;SDS011;1548;51.716;8.748;2022-09-09T15:11:16;508.53;;;104.83;;
3074;SDS011;1548;51.716;8.748;2022-09-09T15:13:42;488.43;;;153.57;;
3074;SDS011;1548;51.716;8.748;2022-09-09T15:16:17;577.30;;;318.13;;
3074;SDS011;1548;51.716;8.748;2022-09-09T15:18:44;547.57;;;214.77;;
3074;SDS011;1548;51.716;8.748;2022-09-09T15:21:15;520.07;;;116.43;;
3074;SDS011;1548;51.716;8.748;2022-09-09T15:23:43;523.87;;;115.23;;
3074;SDS011;1548;51.716;8.748;2022-09-09T15:26:09;509.13;;;157.37;;
3074;SDS011;1548;51.716;8.748;2022-09-09T15:28:36;519.27;;;129.57;;
3074;SDS011;1548;51.716;8.748;2022-09-09T15:31:13;525.27;;;146.07;;
3074;SDS011;1548;51.716;8.748;2022-09-09T15:33:47;522.23;;;134.97;;
3074;SDS011;1548;51.716;8.748;2022-09-09T15:36:21;516.50;;;150.03;;
3074;SDS011;1548;51.716;8.748;2022-09-09T15:38:48;513.07;;;154.53;;
3074;SDS011;1548;51.716;8.748;2022-09-09T15:41:15;514.27;;;101.47;;
3074;SDS011;1548;51.716;8.748;2022-09-09T15:43:45;510.63;;;128.53;;
3074;SDS011;1548;51.716;8.748;2022-09-09T15:49:04;501.23;;;172.43;;
3074;SDS011;1548;51.716;8.748;2022-09-09T15:51:31;497.50;;;162.10;;
3074;SDS011;1548;51.716;8.748;2022-09-09T15:53:58;508.90;;;159.63;;
3074;SDS011;1548;51.716;8.748;2022-09-09T15:56:27;503.60;;;161.30;;
3074;SDS011;1548;51.716;8.748;2022-09-09T15:58:58;491.03;;;170.33;;
3074;SDS011;1548;51.716;8.748;2022-09-09T16:01:25;515.90;;;143.87;;
3074;SDS011;1548;51.716;8.748;2022-09-09T16:03:52;498.93;;;89.20;;
3074;SDS011;1548;51.716;8.748;2022-09-09T16:06:18;522.97;;;97.63;;
3074;SDS011;1548;51.716;8.748;2022-09-09T16:08:47;519.57;;;132.33;;
3074;SDS011;1548;51.716;8.748;2022-09-09T16:11:22;516.37;;;139.67;;
3074;SDS011;1548;51.716;8.748;2022-09-09T16:13:49;520.67;;;107.27;;
3074;SDS011;1548;51.716;8.748;2022-09-09T16:16:17;521.33;;;132.03;;
3074;SDS011;1548;51.716;8.748;2022-09-09T16:18:49;513.00;;;115.80;;
3074;SDS011;1548;51.716;8.748;2022-09-09T16:21:24;511.47;;;105.33;;
3074;SDS011;1548;51.716;8.748;2022-09-09T16:23:54;515.30;;;104.97;;
3074;SDS011;1548;51.716;8.748;2022-09-09T16:26:20;502.87;;;90.57;;
3074;SDS011;1548;51.716;8.748;2022-09-09T16:28:46;512.70;;;93.37;;
3074;SDS011;1548;51.716;8.748;2022-09-09T16:31:15;519.90;;;101.83;;
3074;SDS011;1548;51.716;8.748;2022-09-09T16:33:42;515.47;;;95.37;;
3074;SDS011;1548;51.716;8.748;2022-09-09T16:36:10;521.20;;;101.30;;
3074;SDS011;1548;51.716;8.748;2022-09-09T16:38:37;519.63;;;108.60;;
3074;SDS011;1548;51.716;8.748;2022-09-09T16:41:04;519.30;;;107.43;;
3074;SDS011;1548;51.716;8.748;2022-09-09T16:43:31;520.13;;;91.47;;
3074;SDS011;1548;51.716;8.748;2022-09-09T16:45:58;558.67;;;249.70;;
3074;SDS011;1548;51.716;8.748;2022-09-09T16:48:26;692.23;;;592.13;;
3074;SDS011;1548;51.716;8.748;2022-09-09T16:51:00;478.17;;;104.07;;
3074;SDS011;1548;51.716;8.748;2022-09-09T16:53:35;573.17;;;342.67;;